createdAt,value
2022-11-04T00:00:40.000Z,1007.72
2022-11-04T00:01:43.000Z,1007.70
2022-11-04T00:02:41.000Z,1007.64
2022-11-04T00:03:41.000Z,1007.66
2022-11-04T00:04:40.000Z,1007.62
2022-11-04T00:05:41.000Z,1007.59
2022-11-04T00:06:41.000Z,1007.56
2022-11-04T00:07:46.000Z,1007.54
2022-11-04T00:08:41.000Z,1007.52
2022-11-04T00:09:40.000Z,1007.57
2022-11-04T00:10:46.000Z,1007.55
2022-11-04T00:11:46.000Z,1007.57
2022-11-04T00:12:41.000Z,1007.62
2022-11-04T00:13:41.000Z,1007.54
2022-11-04T00:14:41.000Z,1007.48
2022-11-04T00:15:46.000Z,1007.45
2022-11-04T00:16:46.000Z,1007.46
2022-11-04T00:17:41.000Z,1007.40
2022-11-04T00:18:41.000Z,1007.40
2022-11-04T00:19:53.000Z,1007.41
2022-11-04T00:20:46.000Z,1007.47
2022-11-04T00:21:46.000Z,1007.53
2022-11-04T00:22:46.000Z,1007.59
2022-11-04T00:23:46.000Z,1007.70
2022-11-04T00:24:55.000Z,1007.71
2022-11-04T00:25:46.000Z,1007.68
2022-11-04T00:26:46.000Z,1007.70
2022-11-04T00:27:46.000Z,1007.70
2022-11-04T00:28:43.000Z,1007.63
2022-11-04T00:29:41.000Z,1007.65
2022-11-04T00:30:41.000Z,1007.60
2022-11-04T00:31:46.000Z,1007.63
2022-11-04T00:32:46.000Z,1007.74
2022-11-04T00:33:41.000Z,1007.79
2022-11-04T00:34:41.000Z,1007.80
2022-11-04T00:35:47.000Z,1007.74
2022-11-04T00:36:41.000Z,1007.74
2022-11-04T00:37:42.000Z,1007.76
2022-11-04T00:38:41.000Z,1007.78
2022-11-04T00:39:41.000Z,1007.81
2022-11-04T00:40:40.000Z,1007.81
2022-11-04T00:41:40.000Z,1007.83
2022-11-04T00:42:42.000Z,1007.87
2022-11-04T00:43:40.000Z,1007.92
2022-11-04T00:44:40.000Z,1008.04
2022-11-04T00:45:41.000Z,1008.04
2022-11-04T00:46:40.000Z,1008.11
2022-11-04T00:47:40.000Z,1008.20
2022-11-04T00:48:40.000Z,1008.17
2022-11-04T00:49:40.000Z,1008.25
2022-11-04T00:50:40.000Z,1008.28
2022-11-04T00:51:40.000Z,1008.24
2022-11-04T00:52:40.000Z,1008.29
2022-11-04T00:53:40.000Z,1008.26
2022-11-04T00:54:40.000Z,1008.29
2022-11-04T00:55:41.000Z,1008.27
2022-11-04T00:56:40.000Z,1008.28
2022-11-04T00:57:40.000Z,1008.30
2022-11-04T00:58:41.000Z,1008.25
2022-11-04T00:59:40.000Z,1008.23
2022-11-04T01:00:40.000Z,1008.18
2022-11-04T01:01:40.000Z,1008.16
2022-11-04T01:02:40.000Z,1008.15
2022-11-04T01:03:40.000Z,1008.15
2022-11-04T01:04:40.000Z,1008.10
2022-11-04T01:05:40.000Z,1008.13
2022-11-04T01:06:40.000Z,1008.14
2022-11-04T01:07:40.000Z,1008.17
2022-11-04T01:08:40.000Z,1008.18
2022-11-04T01:09:40.000Z,1008.17
2022-11-04T01:10:43.000Z,1008.16
2022-11-04T01:11:40.000Z,1008.17
2022-11-04T01:12:40.000Z,1008.15
2022-11-04T01:13:40.000Z,1008.14
2022-11-04T01:14:41.000Z,1008.14
2022-11-04T01:15:40.000Z,1008.17
2022-11-04T01:16:40.000Z,1008.13
2022-11-04T01:17:40.000Z,1008.13
2022-11-04T01:18:40.000Z,1008.09
2022-11-04T01:19:40.000Z,1008.12
2022-11-04T01:20:40.000Z,1008.18
2022-11-04T01:21:40.000Z,1008.19
2022-11-04T01:22:41.000Z,1008.20
2022-11-04T01:23:42.000Z,1008.20
2022-11-04T01:24:40.000Z,1008.22
2022-11-04T01:25:41.000Z,1008.18
2022-11-04T01:26:40.000Z,1008.16
2022-11-04T01:27:40.000Z,1008.08
2022-11-04T01:28:41.000Z,1008.16
2022-11-04T01:29:40.000Z,1008.16
2022-11-04T01:30:40.000Z,1008.21
2022-11-04T01:31:40.000Z,1008.23
2022-11-04T01:32:40.000Z,1008.23
2022-11-04T01:33:40.000Z,1008.21
2022-11-04T01:34:40.000Z,1008.17
2022-11-04T01:35:41.000Z,1008.18
2022-11-04T01:36:41.000Z,1008.17
2022-11-04T01:37:41.000Z,1008.16
2022-11-04T01:38:41.000Z,1008.11
2022-11-04T01:39:40.000Z,1008.14
2022-11-04T01:40:40.000Z,1008.06
2022-11-04T01:41:40.000Z,1008.08
2022-11-04T01:42:40.000Z,1008.12
2022-11-04T01:43:55.000Z,1008.11
2022-11-04T01:44:47.000Z,1008.11
2022-11-04T01:45:46.000Z,1008.09
2022-11-04T01:46:47.000Z,1008.13
2022-11-04T01:47:57.000Z,1008.11
2022-11-04T01:48:41.000Z,1008.10
2022-11-04T01:49:42.000Z,1008.12
2022-11-04T01:50:41.000Z,1008.12
2022-11-04T01:51:42.000Z,1008.09
2022-11-04T01:52:51.000Z,1008.11
2022-11-04T01:53:42.000Z,1008.04
2022-11-04T01:54:45.000Z,1008.06
2022-11-04T01:55:49.000Z,1008.08
2022-11-04T01:56:43.000Z,1008.07
2022-11-04T01:57:45.000Z,1008.07
2022-11-04T01:58:45.000Z,1008.03
2022-11-04T01:59:41.000Z,1008.03
2022-11-04T02:00:41.000Z,1008.06
2022-11-04T02:01:41.000Z,1008.03
2022-11-04T02:02:52.000Z,1008.01
2022-11-04T02:03:56.000Z,1008.03
2022-11-04T02:04:41.000Z,1008.07
2022-11-04T02:05:41.000Z,1008.03
2022-11-04T02:06:41.000Z,1008.06
2022-11-04T02:07:41.000Z,1008.03
2022-11-04T02:08:41.000Z,1008.05
2022-11-04T02:09:42.000Z,1008.02
2022-11-04T02:10:56.000Z,1008.12
2022-11-04T02:11:46.000Z,1008.10
2022-11-04T02:12:46.000Z,1008.09
2022-11-04T02:13:40.000Z,1008.11
2022-11-04T02:14:42.000Z,1008.11
2022-11-04T02:15:50.000Z,1008.17
2022-11-04T02:16:46.000Z,1008.20
2022-11-04T02:17:55.000Z,1008.22
2022-11-04T02:19:03.000Z,1008.27
2022-11-04T02:20:00.000Z,1008.26
2022-11-04T02:21:03.000Z,1008.29
2022-11-04T02:21:55.000Z,1008.27
2022-11-04T02:23:00.000Z,1008.27
2022-11-04T02:24:12.000Z,1008.29
2022-11-04T02:25:00.000Z,1008.32
2022-11-04T02:25:50.000Z,1008.27
2022-11-04T02:27:05.000Z,1008.22
2022-11-04T02:27:50.000Z,1008.21
2022-11-04T02:29:03.000Z,1008.25
2022-11-04T02:29:54.000Z,1008.25
2022-11-04T02:30:49.000Z,1008.23
2022-11-04T02:31:50.000Z,1008.21
2022-11-04T02:32:58.000Z,1008.21
2022-11-04T02:33:50.000Z,1008.19
2022-11-04T02:34:50.000Z,1008.17
2022-11-04T02:36:08.000Z,1008.18
2022-11-04T02:36:50.000Z,1008.22
2022-11-04T02:37:55.000Z,1008.17
2022-11-04T02:38:52.000Z,1008.17
2022-11-04T02:39:50.000Z,1008.21
2022-11-04T02:41:05.000Z,1008.23
2022-11-04T02:41:54.000Z,1008.28
2022-11-04T02:42:51.000Z,1008.29
2022-11-04T02:44:04.000Z,1008.32
2022-11-04T02:45:04.000Z,1008.30
2022-11-04T02:45:45.000Z,1008.32
2022-11-04T02:47:02.000Z,1008.26
2022-11-04T02:47:45.000Z,1008.25
2022-11-04T02:48:48.000Z,1008.22
2022-11-04T02:49:49.000Z,1008.24
2022-11-04T02:50:51.000Z,1008.23
2022-11-04T02:51:50.000Z,1008.26
2022-11-04T02:52:51.000Z,1008.36
2022-11-04T02:53:59.000Z,1008.33
2022-11-04T02:54:51.000Z,1008.45
2022-11-04T02:55:46.000Z,1008.50
2022-11-04T02:56:46.000Z,1008.51
2022-11-04T02:57:44.000Z,1008.42
2022-11-04T02:58:52.000Z,1008.39
2022-11-04T02:59:47.000Z,1008.35
2022-11-04T03:00:43.000Z,1008.32
2022-11-04T03:01:43.000Z,1008.32
2022-11-04T03:02:51.000Z,1008.33
2022-11-04T03:03:48.000Z,1008.36
2022-11-04T03:04:45.000Z,1008.41
2022-11-04T03:05:44.000Z,1008.42
2022-11-04T03:06:46.000Z,1008.50
2022-11-04T03:07:43.000Z,1008.50
2022-11-04T03:08:46.000Z,1008.48
2022-11-04T03:09:46.000Z,1008.47
2022-11-04T03:10:44.000Z,1008.44
2022-11-04T03:11:45.000Z,1008.54
2022-11-04T03:12:46.000Z,1008.60
2022-11-04T03:13:58.000Z,1008.67
2022-11-04T03:14:47.000Z,1008.72
2022-11-04T03:15:49.000Z,1008.68
2022-11-04T03:16:51.000Z,1008.62
2022-11-04T03:17:51.000Z,1008.63
2022-11-04T03:18:51.000Z,1008.61
2022-11-04T03:19:51.000Z,1008.62
2022-11-04T03:20:44.000Z,1008.60
2022-11-04T03:21:53.000Z,1008.65
2022-11-04T03:22:41.000Z,1008.70
2022-11-04T03:23:42.000Z,1008.73
2022-11-04T03:24:42.000Z,1008.76
2022-11-04T03:25:44.000Z,1008.81
2022-11-04T03:26:53.000Z,1008.80
2022-11-04T03:27:50.000Z,1008.84
2022-11-04T03:28:52.000Z,1008.85
2022-11-04T03:29:55.000Z,1008.86
2022-11-04T03:30:46.000Z,1008.90
2022-11-04T03:31:56.000Z,1008.89
2022-11-04T03:32:52.000Z,1008.85
2022-11-04T03:33:48.000Z,1008.79
2022-11-04T03:34:41.000Z,1008.78
2022-11-04T03:35:41.000Z,1008.70
2022-11-04T03:36:41.000Z,1008.70
2022-11-04T03:37:42.000Z,1008.78
2022-11-04T03:38:41.000Z,1008.84
2022-11-04T03:39:41.000Z,1008.90
2022-11-04T03:40:41.000Z,1008.93
2022-11-04T03:41:49.000Z,1008.90
2022-11-04T03:42:49.000Z,1008.88
2022-11-04T03:43:41.000Z,1008.85
2022-11-04T03:44:42.000Z,1008.82
2022-11-04T03:45:42.000Z,1008.82
2022-11-04T03:46:41.000Z,1008.77
2022-11-04T03:47:41.000Z,1008.71
2022-11-04T03:48:41.000Z,1008.70
2022-11-04T03:49:42.000Z,1008.67
2022-11-04T03:50:44.000Z,1008.70
2022-11-04T03:51:41.000Z,1008.74
2022-11-04T03:52:41.000Z,1008.76
2022-11-04T03:53:41.000Z,1008.75
2022-11-04T03:54:41.000Z,1008.75
2022-11-04T03:55:51.000Z,1008.78
2022-11-04T03:57:05.000Z,1008.79
2022-11-04T03:57:54.000Z,1008.84
2022-11-04T03:59:14.000Z,1008.85
2022-11-04T03:59:59.000Z,1008.91
2022-11-04T04:00:50.000Z,1008.94
2022-11-04T04:02:17.000Z,1008.96
2022-11-04T04:03:01.000Z,1008.95
2022-11-04T04:03:48.000Z,1008.96
2022-11-04T04:04:51.000Z,1009.01
2022-11-04T04:05:52.000Z,1009.02
2022-11-04T04:06:43.000Z,1009.03
2022-11-04T04:07:46.000Z,1009.01
2022-11-04T04:08:49.000Z,1008.99
2022-11-04T04:09:48.000Z,1009.00
2022-11-04T04:10:53.000Z,1009.06
2022-11-04T04:12:04.000Z,1009.06
2022-11-04T04:12:41.000Z,1009.09
2022-11-04T04:13:52.000Z,1009.13
2022-11-04T04:14:49.000Z,1009.13
2022-11-04T04:15:49.000Z,1009.15
2022-11-04T04:16:45.000Z,1009.10
2022-11-04T04:17:48.000Z,1009.04
2022-11-04T04:18:55.000Z,1008.98
2022-11-04T04:19:46.000Z,1008.95
2022-11-04T04:20:42.000Z,1008.89
2022-11-04T04:21:50.000Z,1008.84
2022-11-04T04:22:47.000Z,1008.83
2022-11-04T04:23:49.000Z,1008.74
2022-11-04T04:24:48.000Z,1008.75
2022-11-04T04:25:46.000Z,1008.73
2022-11-04T04:26:48.000Z,1008.70
2022-11-04T04:27:43.000Z,1008.69
2022-11-04T04:28:42.000Z,1008.76
2022-11-04T04:29:44.000Z,1008.78
2022-11-04T04:30:42.000Z,1008.77
2022-11-04T04:31:47.000Z,1008.85
2022-11-04T04:32:47.000Z,1008.79
2022-11-04T04:33:41.000Z,1008.82
2022-11-04T04:34:41.000Z,1008.80
2022-11-04T04:35:47.000Z,1008.79
2022-11-04T04:36:51.000Z,1008.75
2022-11-04T04:37:44.000Z,1008.75
2022-11-04T04:38:46.000Z,1008.75
2022-11-04T04:39:53.000Z,1008.71
2022-11-04T04:40:52.000Z,1008.70
2022-11-04T04:41:46.000Z,1008.70
2022-11-04T04:42:46.000Z,1008.65
2022-11-04T04:43:46.000Z,1008.57
2022-11-04T04:44:46.000Z,1008.54
2022-11-04T04:45:46.000Z,1008.54
2022-11-04T04:46:43.000Z,1008.52
2022-11-04T04:47:43.000Z,1008.53
2022-11-04T04:48:40.000Z,1008.56
2022-11-04T04:49:50.000Z,1008.56
2022-11-04T04:50:45.000Z,1008.55
2022-11-04T04:51:43.000Z,1008.54
2022-11-04T04:52:44.000Z,1008.53
2022-11-04T04:53:40.000Z,1008.51
2022-11-04T04:54:40.000Z,1008.55
2022-11-04T04:55:40.000Z,1008.56
2022-11-04T04:56:40.000Z,1008.59
2022-11-04T04:57:40.000Z,1008.57
2022-11-04T04:58:40.000Z,1008.60
2022-11-04T04:59:40.000Z,1008.62
2022-11-04T05:00:40.000Z,1008.62
2022-11-04T05:01:40.000Z,1008.59
2022-11-04T05:02:41.000Z,1008.55
2022-11-04T05:03:40.000Z,1008.56
2022-11-04T05:04:40.000Z,1008.48
2022-11-04T05:05:40.000Z,1008.46
2022-11-04T05:06:40.000Z,1008.45
2022-11-04T05:07:40.000Z,1008.43
2022-11-04T05:08:40.000Z,1008.43
2022-11-04T05:09:40.000Z,1008.44
2022-11-04T05:10:40.000Z,1008.42
2022-11-04T05:11:40.000Z,1008.42
2022-11-04T05:12:45.000Z,1008.37
2022-11-04T05:13:40.000Z,1008.36
2022-11-04T05:14:40.000Z,1008.38
2022-11-04T05:15:40.000Z,1008.42
2022-11-04T05:16:40.000Z,1008.42
2022-11-04T05:17:41.000Z,1008.44
2022-11-04T05:18:40.000Z,1008.43
2022-11-04T05:19:41.000Z,1008.46
2022-11-04T05:20:41.000Z,1008.46
2022-11-04T05:21:40.000Z,1008.51
2022-11-04T05:22:41.000Z,1008.50
2022-11-04T05:23:40.000Z,1008.51
2022-11-04T05:24:40.000Z,1008.53
2022-11-04T05:25:41.000Z,1008.49
2022-11-04T05:26:40.000Z,1008.48
2022-11-04T05:27:40.000Z,1008.44
2022-11-04T05:28:40.000Z,1008.39
2022-11-04T05:29:41.000Z,1008.39
2022-11-04T05:30:41.000Z,1008.42
2022-11-04T05:31:41.000Z,1008.40
2022-11-04T05:32:41.000Z,1008.35
2022-11-04T05:33:41.000Z,1008.34
2022-11-04T05:34:40.000Z,1008.32
2022-11-04T05:35:40.000Z,1008.32
2022-11-04T05:36:41.000Z,1008.29
2022-11-04T05:37:41.000Z,1008.26
2022-11-04T05:38:42.000Z,1008.31
2022-11-04T05:39:40.000Z,1008.29
2022-11-04T05:40:40.000Z,1008.28
2022-11-04T05:41:41.000Z,1008.29
2022-11-04T05:42:41.000Z,1008.32
2022-11-04T05:43:40.000Z,1008.31
2022-11-04T05:44:40.000Z,1008.32
2022-11-04T05:45:40.000Z,1008.27
2022-11-04T05:46:41.000Z,1008.25
2022-11-04T05:47:41.000Z,1008.27
2022-11-04T05:48:40.000Z,1008.24
2022-11-04T05:49:40.000Z,1008.29
2022-11-04T05:50:40.000Z,1008.29
2022-11-04T05:51:40.000Z,1008.31
2022-11-04T05:52:40.000Z,1008.31
2022-11-04T05:53:40.000Z,1008.34
2022-11-04T05:54:40.000Z,1008.35
2022-11-04T05:55:41.000Z,1008.31
2022-11-04T05:56:40.000Z,1008.35
2022-11-04T05:57:40.000Z,1008.35
2022-11-04T05:58:40.000Z,1008.42
2022-11-04T05:59:40.000Z,1008.40
2022-11-04T06:00:41.000Z,1008.40
2022-11-04T06:01:42.000Z,1008.45
2022-11-04T06:02:40.000Z,1008.49
2022-11-04T06:03:41.000Z,1008.52
2022-11-04T06:04:40.000Z,1008.57
2022-11-04T06:05:40.000Z,1008.63
2022-11-04T06:06:41.000Z,1008.61
2022-11-04T06:07:40.000Z,1008.63
2022-11-04T06:08:40.000Z,1008.66
2022-11-04T06:09:40.000Z,1008.64
2022-11-04T06:10:41.000Z,1008.65
2022-11-04T06:11:40.000Z,1008.64
2022-11-04T06:12:40.000Z,1008.64
2022-11-04T06:13:40.000Z,1008.70
2022-11-04T06:14:41.000Z,1008.68
2022-11-04T06:15:40.000Z,1008.73
2022-11-04T06:16:40.000Z,1008.74
2022-11-04T06:17:40.000Z,1008.74
2022-11-04T06:18:41.000Z,1008.74
2022-11-04T06:19:41.000Z,1008.73
2022-11-04T06:20:40.000Z,1008.76
2022-11-04T06:21:40.000Z,1008.76
2022-11-04T06:22:40.000Z,1008.70
2022-11-04T06:23:41.000Z,1008.71
2022-11-04T06:24:41.000Z,1008.69
2022-11-04T06:25:41.000Z,1008.68
2022-11-04T06:26:41.000Z,1008.70
2022-11-04T06:27:40.000Z,1008.68
2022-11-04T06:28:41.000Z,1008.62
2022-11-04T06:29:41.000Z,1008.59
2022-11-04T06:30:40.000Z,1008.54
2022-11-04T06:31:40.000Z,1008.57
2022-11-04T06:32:41.000Z,1008.52
2022-11-04T06:33:41.000Z,1008.50
2022-11-04T06:34:41.000Z,1008.47
2022-11-04T06:35:40.000Z,1008.53
2022-11-04T06:36:40.000Z,1008.54
2022-11-04T06:37:40.000Z,1008.51
2022-11-04T06:38:41.000Z,1008.52
2022-11-04T06:39:40.000Z,1008.56
2022-11-04T06:40:40.000Z,1008.52
2022-11-04T06:41:41.000Z,1008.55
2022-11-04T06:42:41.000Z,1008.52
2022-11-04T06:43:41.000Z,1008.52
2022-11-04T06:44:40.000Z,1008.56
2022-11-04T06:45:41.000Z,1008.55
2022-11-04T06:46:42.000Z,1008.60
2022-11-04T06:47:40.000Z,1008.63
2022-11-04T06:48:40.000Z,1008.62
2022-11-04T06:49:41.000Z,1008.59
2022-11-04T06:50:40.000Z,1008.59
2022-11-04T06:51:40.000Z,1008.64
2022-11-04T06:52:40.000Z,1008.62
2022-11-04T06:53:40.000Z,1008.63
2022-11-04T06:54:40.000Z,1008.65
2022-11-04T06:55:41.000Z,1008.66
2022-11-04T06:56:41.000Z,1008.69
2022-11-04T06:57:41.000Z,1008.67
2022-11-04T06:58:41.000Z,1008.68
2022-11-04T06:59:40.000Z,1008.67
2022-11-04T07:00:41.000Z,1008.65
2022-11-04T07:01:41.000Z,1008.68
2022-11-04T07:02:41.000Z,1008.71
2022-11-04T07:03:41.000Z,1008.70
2022-11-04T07:04:40.000Z,1008.73
2022-11-04T07:05:40.000Z,1008.79
2022-11-04T07:06:41.000Z,1008.79
2022-11-04T07:07:41.000Z,1008.80
2022-11-04T07:08:40.000Z,1008.80
2022-11-04T07:09:40.000Z,1008.85
2022-11-04T07:10:41.000Z,1008.86
2022-11-04T07:11:42.000Z,1008.87
2022-11-04T07:12:41.000Z,1008.86
2022-11-04T07:13:41.000Z,1008.88
2022-11-04T07:14:41.000Z,1008.87
2022-11-04T07:15:41.000Z,1008.88
2022-11-04T07:16:40.000Z,1008.84
2022-11-04T07:17:42.000Z,1008.82
2022-11-04T07:18:41.000Z,1008.82
2022-11-04T07:19:40.000Z,1008.82
2022-11-04T07:20:40.000Z,1008.87
2022-11-04T07:21:40.000Z,1008.83
2022-11-04T07:22:40.000Z,1008.86
2022-11-04T07:23:41.000Z,1008.85
2022-11-04T07:24:40.000Z,1008.83
2022-11-04T07:25:40.000Z,1008.86
2022-11-04T07:26:41.000Z,1008.85
2022-11-04T07:27:41.000Z,1008.91
2022-11-04T07:28:40.000Z,1008.91
2022-11-04T07:29:40.000Z,1008.94
2022-11-04T07:30:41.000Z,1008.92
2022-11-04T07:31:42.000Z,1008.89
2022-11-04T07:32:40.000Z,1008.90
2022-11-04T07:33:41.000Z,1008.90
2022-11-04T07:34:41.000Z,1008.88
2022-11-04T07:35:41.000Z,1008.90
2022-11-04T07:36:40.000Z,1008.89
2022-11-04T07:37:40.000Z,1008.90
2022-11-04T07:38:41.000Z,1008.91
2022-11-04T07:39:40.000Z,1008.95
2022-11-04T07:40:40.000Z,1008.99
2022-11-04T07:41:40.000Z,1009.00
2022-11-04T07:42:40.000Z,1009.03
2022-11-04T07:43:41.000Z,1009.02
2022-11-04T07:44:40.000Z,1009.00
2022-11-04T07:45:41.000Z,1008.96
2022-11-04T07:46:40.000Z,1008.95
2022-11-04T07:47:41.000Z,1008.95
2022-11-04T07:48:40.000Z,1008.89
2022-11-04T07:49:40.000Z,1008.88
2022-11-04T07:50:40.000Z,1008.86
2022-11-04T07:51:40.000Z,1008.85
2022-11-04T07:52:40.000Z,1008.79
2022-11-04T07:53:41.000Z,1008.79
2022-11-04T07:54:40.000Z,1008.74
2022-11-04T07:55:43.000Z,1008.71
2022-11-04T07:56:40.000Z,1008.68
2022-11-04T07:57:40.000Z,1008.67
2022-11-04T07:58:41.000Z,1008.68
2022-11-04T07:59:40.000Z,1008.68
2022-11-04T08:00:40.000Z,1008.68
2022-11-04T08:01:40.000Z,1008.62
2022-11-04T08:02:44.000Z,1008.65
2022-11-04T08:03:41.000Z,1008.62
2022-11-04T08:04:40.000Z,1008.62
2022-11-04T08:05:40.000Z,1008.64
2022-11-04T08:06:41.000Z,1008.67
2022-11-04T08:07:41.000Z,1008.63
2022-11-04T08:08:43.000Z,1008.66
2022-11-04T08:09:40.000Z,1008.70
2022-11-04T08:10:40.000Z,1008.72
2022-11-04T08:11:40.000Z,1008.68
2022-11-04T08:12:40.000Z,1008.69
2022-11-04T08:13:41.000Z,1008.69
2022-11-04T08:14:40.000Z,1008.66
2022-11-04T08:15:40.000Z,1008.68
2022-11-04T08:16:40.000Z,1008.68
2022-11-04T08:17:40.000Z,1008.63
2022-11-04T08:18:41.000Z,1008.61
2022-11-04T08:19:40.000Z,1008.57
2022-11-04T08:20:46.000Z,1008.54
2022-11-04T08:21:40.000Z,1008.53
2022-11-04T08:22:40.000Z,1008.55
2022-11-04T08:23:40.000Z,1008.53
2022-11-04T08:24:40.000Z,1008.55
2022-11-04T08:25:41.000Z,1008.47
2022-11-04T08:26:40.000Z,1008.45
2022-11-04T08:27:40.000Z,1008.43
2022-11-04T08:28:40.000Z,1008.41
2022-11-04T08:29:40.000Z,1008.41
2022-11-04T08:30:40.000Z,1008.43
2022-11-04T08:31:40.000Z,1008.44
2022-11-04T08:32:40.000Z,1008.45
2022-11-04T08:33:41.000Z,1008.44
2022-11-04T08:34:40.000Z,1008.43
2022-11-04T08:35:41.000Z,1008.44
2022-11-04T08:36:41.000Z,1008.44
2022-11-04T08:37:40.000Z,1008.43
2022-11-04T08:38:40.000Z,1008.47
2022-11-04T08:39:41.000Z,1008.46
2022-11-04T08:40:41.000Z,1008.43
2022-11-04T08:41:41.000Z,1008.47
2022-11-04T08:42:40.000Z,1008.45
2022-11-04T08:43:40.000Z,1008.46
2022-11-04T08:44:41.000Z,1008.46
2022-11-04T08:45:43.000Z,1008.47
2022-11-04T08:46:42.000Z,1008.49
2022-11-04T08:47:40.000Z,1008.42
2022-11-04T08:48:41.000Z,1008.48
2022-11-04T08:49:40.000Z,1008.48
2022-11-04T08:50:41.000Z,1008.47
2022-11-04T08:51:43.000Z,1008.43
2022-11-04T08:52:40.000Z,1008.41
2022-11-04T08:53:40.000Z,1008.43
2022-11-04T08:54:40.000Z,1008.43
2022-11-04T08:55:40.000Z,1008.44
2022-11-04T08:56:40.000Z,1008.42
2022-11-04T08:57:40.000Z,1008.38
2022-11-04T08:58:40.000Z,1008.39
2022-11-04T08:59:40.000Z,1008.38
2022-11-04T09:00:40.000Z,1008.40
2022-11-04T09:01:40.000Z,1008.40
2022-11-04T09:02:40.000Z,1008.43
2022-11-04T09:03:40.000Z,1008.40
2022-11-04T09:04:40.000Z,1008.43
2022-11-04T09:05:44.000Z,1008.45
2022-11-04T09:06:41.000Z,1008.46
2022-11-04T09:07:41.000Z,1008.47
2022-11-04T09:08:41.000Z,1008.52
2022-11-04T09:09:40.000Z,1008.50
2022-11-04T09:10:45.000Z,1008.50
2022-11-04T09:11:42.000Z,1008.54
2022-11-04T09:12:41.000Z,1008.52
2022-11-04T09:13:41.000Z,1008.52
2022-11-04T09:14:40.000Z,1008.54
2022-11-04T09:15:41.000Z,1008.57
2022-11-04T09:16:40.000Z,1008.55
2022-11-04T09:17:42.000Z,1008.58
2022-11-04T09:18:40.000Z,1008.58
2022-11-04T09:19:40.000Z,1008.56
2022-11-04T09:20:40.000Z,1008.61
2022-11-04T09:21:40.000Z,1008.62
2022-11-04T09:22:40.000Z,1008.63
2022-11-04T09:23:40.000Z,1008.62
2022-11-04T09:24:40.000Z,1008.64
2022-11-04T09:25:40.000Z,1008.66
2022-11-04T09:26:40.000Z,1008.63
2022-11-04T09:27:40.000Z,1008.63
2022-11-04T09:28:41.000Z,1008.64
2022-11-04T09:29:40.000Z,1008.64
2022-11-04T09:30:40.000Z,1008.65
2022-11-04T09:31:42.000Z,1008.65
2022-11-04T09:32:40.000Z,1008.71
2022-11-04T09:33:42.000Z,1008.74
2022-11-04T09:34:40.000Z,1008.74
2022-11-04T09:35:41.000Z,1008.77
2022-11-04T09:36:43.000Z,1008.80
2022-11-04T09:37:40.000Z,1008.86
2022-11-04T09:38:41.000Z,1008.88
2022-11-04T09:39:40.000Z,1008.92
2022-11-04T09:40:40.000Z,1008.95
2022-11-04T09:42:04.000Z,1008.95
2022-11-04T09:42:53.000Z,1008.95
2022-11-04T09:44:13.000Z,1008.95
2022-11-04T09:44:58.000Z,1008.99
2022-11-04T09:45:42.000Z,1009.01
2022-11-04T09:46:43.000Z,1008.99
2022-11-04T09:47:44.000Z,1009.01
2022-11-04T09:48:45.000Z,1009.01
2022-11-04T09:49:45.000Z,1009.05
2022-11-04T09:50:48.000Z,1009.09
2022-11-04T09:51:42.000Z,1009.09
2022-11-04T09:52:45.000Z,1009.12
2022-11-04T09:53:45.000Z,1009.09
2022-11-04T09:54:48.000Z,1009.13
2022-11-04T09:55:48.000Z,1009.08
2022-11-04T09:56:43.000Z,1009.13
2022-11-04T09:57:40.000Z,1009.15
2022-11-04T09:58:40.000Z,1009.11
2022-11-04T09:59:40.000Z,1009.13
2022-11-04T10:00:46.000Z,1009.11
2022-11-04T10:01:50.000Z,1009.08
2022-11-04T10:02:50.000Z,1009.09
2022-11-04T10:03:56.000Z,1009.07
2022-11-04T10:04:52.000Z,1009.07
2022-11-04T10:05:57.000Z,1009.05
2022-11-04T10:06:50.000Z,1009.04
2022-11-04T10:08:03.000Z,1009.03
2022-11-04T10:08:53.000Z,1008.98
2022-11-04T10:10:03.000Z,1008.99
2022-11-04T10:11:00.000Z,1009.01
2022-11-04T10:11:50.000Z,1008.99
2022-11-04T10:13:04.000Z,1008.98
2022-11-04T10:13:57.000Z,1008.97
2022-11-04T10:14:58.000Z,1009.01
2022-11-04T10:15:56.000Z,1009.01
2022-11-04T10:17:04.000Z,1009.06
2022-11-04T10:17:50.000Z,1008.99
2022-11-04T10:19:03.000Z,1009.01
2022-11-04T10:19:58.000Z,1008.98
2022-11-04T10:20:56.000Z,1008.97
2022-11-04T10:22:00.000Z,1008.94
2022-11-04T10:23:16.000Z,1008.92
2022-11-04T10:23:43.000Z,1008.93
2022-11-04T10:24:58.000Z,1008.95
2022-11-04T10:25:55.000Z,1008.95
2022-11-04T10:26:48.000Z,1008.92
2022-11-04T10:27:44.000Z,1008.94
2022-11-04T10:28:44.000Z,1008.93
2022-11-04T10:29:43.000Z,1008.90
2022-11-04T10:30:43.000Z,1008.91
2022-11-04T10:31:43.000Z,1008.88
2022-11-04T10:32:52.000Z,1008.87
2022-11-04T10:33:48.000Z,1008.84
2022-11-04T10:34:46.000Z,1008.86
2022-11-04T10:35:51.000Z,1008.84
2022-11-04T10:36:41.000Z,1008.86
2022-11-04T10:37:41.000Z,1008.86
2022-11-04T10:38:49.000Z,1008.85
2022-11-04T10:39:44.000Z,1008.80
2022-11-04T10:40:43.000Z,1008.82
2022-11-04T10:41:40.000Z,1008.82
2022-11-04T10:42:41.000Z,1008.80
2022-11-04T10:43:41.000Z,1008.82
2022-11-04T10:44:42.000Z,1008.76
2022-11-04T10:45:53.000Z,1008.78
2022-11-04T10:47:01.000Z,1008.77
2022-11-04T10:47:50.000Z,1008.73
2022-11-04T10:48:51.000Z,1008.79
2022-11-04T10:50:07.000Z,1008.75
2022-11-04T10:50:51.000Z,1008.77
2022-11-04T10:51:40.000Z,1008.79
2022-11-04T10:52:41.000Z,1008.74
2022-11-04T10:53:40.000Z,1008.77
2022-11-04T10:54:44.000Z,1008.75
2022-11-04T10:55:49.000Z,1008.73
2022-11-04T10:56:51.000Z,1008.72
2022-11-04T10:57:41.000Z,1008.71
2022-11-04T10:58:46.000Z,1008.68
2022-11-04T10:59:51.000Z,1008.71
2022-11-04T11:00:41.000Z,1008.71
2022-11-04T11:01:52.000Z,1008.72
2022-11-04T11:02:46.000Z,1008.68
2022-11-04T11:03:41.000Z,1008.66
2022-11-04T11:04:43.000Z,1008.68
2022-11-04T11:05:41.000Z,1008.72
2022-11-04T11:06:41.000Z,1008.64
2022-11-04T11:07:42.000Z,1008.68
2022-11-04T11:08:42.000Z,1008.67
2022-11-04T11:09:50.000Z,1008.72
2022-11-04T11:10:50.000Z,1008.71
2022-11-04T11:11:49.000Z,1008.72
2022-11-04T11:12:51.000Z,1008.68
2022-11-04T11:13:43.000Z,1008.75
2022-11-04T11:14:41.000Z,1008.73
2022-11-04T11:15:41.000Z,1008.73
2022-11-04T11:16:41.000Z,1008.71
2022-11-04T11:17:41.000Z,1008.71
2022-11-04T11:18:41.000Z,1008.69
2022-11-04T11:19:51.000Z,1008.69
2022-11-04T11:20:47.000Z,1008.68
2022-11-04T11:21:46.000Z,1008.71
2022-11-04T11:22:43.000Z,1008.67
2022-11-04T11:23:46.000Z,1008.67
2022-11-04T11:24:40.000Z,1008.66
2022-11-04T11:25:49.000Z,1008.66
2022-11-04T11:26:50.000Z,1008.71
2022-11-04T11:27:46.000Z,1008.68
2022-11-04T11:28:47.000Z,1008.66
2022-11-04T11:29:40.000Z,1008.66
2022-11-04T11:30:56.000Z,1008.69
2022-11-04T11:31:40.000Z,1008.64
2022-11-04T11:32:42.000Z,1008.67
2022-11-04T11:33:49.000Z,1008.63
2022-11-04T11:34:44.000Z,1008.61
2022-11-04T11:35:56.000Z,1008.66
2022-11-04T11:36:43.000Z,1008.65
2022-11-04T11:37:44.000Z,1008.63
2022-11-04T11:38:50.000Z,1008.65
2022-11-04T11:39:41.000Z,1008.60
2022-11-04T11:40:40.000Z,1008.60
2022-11-04T11:41:54.000Z,1008.61
2022-11-04T11:42:40.000Z,1008.55
2022-11-04T11:43:49.000Z,1008.57
2022-11-04T11:44:49.000Z,1008.57
2022-11-04T11:45:47.000Z,1008.56
2022-11-04T11:46:50.000Z,1008.60
2022-11-04T11:47:42.000Z,1008.55
2022-11-04T11:48:48.000Z,1008.57
2022-11-04T11:49:40.000Z,1008.52
2022-11-04T11:50:52.000Z,1008.53
2022-11-04T11:51:41.000Z,1008.52
2022-11-04T11:52:41.000Z,1008.52
2022-11-04T11:53:54.000Z,1008.53
2022-11-04T11:54:46.000Z,1008.53
2022-11-04T11:55:50.000Z,1008.54
2022-11-04T11:56:50.000Z,1008.47
2022-11-04T11:58:07.000Z,1008.49
2022-11-04T11:59:36.000Z,1008.47
2022-11-04T12:00:13.000Z,1008.48
2022-11-04T12:00:51.000Z,1008.46
2022-11-04T12:01:48.000Z,1008.44
2022-11-04T12:02:51.000Z,1008.43
2022-11-04T12:03:42.000Z,1008.43
2022-11-04T12:05:12.000Z,1008.42
2022-11-04T12:06:23.000Z,1008.41